| Date | Time | Temp. (oF) | Dew Point (oF) | Rel. Hum. (%) | Press. (in.) | Wind Dir. | Wind Speed (mph) | Hourly Rainfall (in.) |
|
|---|---|---|---|---|---|---|---|---|---|
| 1 | 12/12 | 00:00 | 46 | 42 | 89 | 29.98 | WSW | 0 | 0.00 |
| 2 | 12/11 | 23:00 | 46 | 42 | 88 | 29.96 | S | 0 | 0.00 |
| 3 | 12/11 | 22:00 | 47 | 43 | 87 | 29.95 | NE | 0 | 0.00 |
| 4 | 12/11 | 21:00 | 49 | 44 | 83 | 29.95 | WNW | 0 | 0.00 |
| 5 | 12/11 | 20:00 | 49 | 43 | 81 | 29.94 | SSW | 0 | 0.00 |
| 6 | 12/11 | 19:00 | 51 | 45 | 82 | 29.93 | SW | 3 | 0.00 |
| 7 | 12/11 | 18:00 | 52 | 45 | 77 | 29.91 | SSW | 0 | 0.00 |
| 8 | 12/11 | 17:00 | 56 | 46 | 71 | 29.87 | SW | 0 | 0.00 |
| 9 | 12/11 | 16:00 | 59 | 47 | 65 | 29.85 | SW | 0 | 0.00 |
| 10 | 12/11 | 15:00 | 58 | 47 | 68 | 29.84 | WSW | 0 | 0.00 |
| 11 | 12/11 | 14:00 | 57 | 47 | 71 | 29.83 | S | 1 | 0.00 |
| 12 | 12/11 | 13:00 | 57 | 47 | 71 | 29.84 | SSW | 0 | 0.00 |
| 13 | 12/11 | 12:00 | 55 | 47 | 76 | 29.86 | N | 0 | 0.00 |
| 14 | 12/11 | 11:00 | 51 | 47 | 88 | 29.88 | WNW | 0 | 0.00 |
| 15 | 12/11 | 10:00 | 45 | 41 | 88 | 29.87 | SSW | 0 | 0.00 |
| 16 | 12/11 | 09:00 | 41 | 38 | 89 | 29.86 | ESE | 0 | 0.00 |
| 17 | 12/11 | 08:00 | 37 | 34 | 91 | 29.84 | SSW | 0 | 0.00 |
| 18 | 12/11 | 07:00 | 36 | 33 | 91 | 29.84 | SE | 0 | 0.00 |
| 19 | 12/11 | 06:00 | 36 | 33 | 91 | 29.82 | NE | 0 | 0.00 |
| 20 | 12/11 | 05:00 | 37 | 34 | 91 | 29.80 | S | 0 | 0.00 |
| 21 | 12/11 | 04:00 | 40 | 37 | 90 | 29.80 | WSW | 1 | 0.00 |
| 22 | 12/11 | 03:00 | 37 | 34 | 91 | 29.82 | NNW | 0 | 0.00 |
| 23 | 12/11 | 02:00 | 38 | 35 | 90 | 29.81 | SSW | 0 | 0.00 |
| 24 | 12/11 | 01:00 | 38 | 35 | 90 | 29.81 | NNE | 0 | 0.00 |